Time;durP1;ratioP1;P1;durP2;ratioP2;P2;SDS_P1;SDS_P2;PMS_P1;PMS_P2;Temp;Humidity;BMP_temperature;BMP_pressure;BME280_temperature;BME280_humidity;BME280_pressure;Samples;Min_cycle;Max_cycle;Signal;HPM_P1;HPM_P2
2024/04/02 00:04:48;;;;;;;0.00;0.00;;;1.80;99.90;;;;;;20426763;29;20039;-39
2024/04/02 00:14:50;;;;;;;0.15;0.00;;;2.00;99.90;;;;;;20457584;29;20058;-39
2024/04/02 00:24:52;;;;;;;0.00;0.00;;;2.10;99.90;;;;;;20444624;29;20039;-38
2024/04/02 00:34:55;;;;;;;0.00;0.00;;;2.70;99.90;;;;;;20417101;29;20195;-38
2024/04/02 00:44:56;;;;;;;0.00;0.00;;;2.80;99.90;;;;;;20451233;29;20699;-38
2024/04/02 00:54:59;;;;;;;0.00;0.00;;;3.00;99.90;;;;;;20432168;29;20046;-38
2024/04/02 01:05:01;;;;;;;0.00;0.00;;;2.40;99.90;;;;;;20432906;29;20098;-39
2024/04/02 01:15:03;;;;;;;0.00;0.00;;;2.30;99.90;;;;;;20268570;29;20096;-38
2024/04/02 01:25:09;;;;;;;0.00;0.00;;;1.80;99.90;;;;;;20304641;29;20095;-39
2024/04/02 01:35:14;;;;;;;0.00;0.00;;;1.60;99.90;;;;;;20336159;29;20063;-39
2024/04/02 01:45:15;;;;;;;2.50;0.10;;;1.40;99.90;;;;;;20437903;29;20451;-38
2024/04/02 01:55:17;;;;;;;0.00;0.00;;;1.60;99.90;;;;;;20470623;29;20050;-38
2024/04/02 02:05:19;;;;;;;0.13;0.00;;;1.60;99.90;;;;;;20501782;28;20407;-39
2024/04/02 02:15:21;;;;;;;0.00;0.00;;;1.80;99.90;;;;;;20501676;29;20106;-39
2024/04/02 02:25:22;;;;;;;0.10;0.00;;;2.00;99.90;;;;;;20500789;29;20118;-39
2024/04/02 02:35:24;;;;;;;0.00;0.00;;;1.80;99.90;;;;;;20483559;29;20110;-38
2024/04/02 02:45:26;;;;;;;0.10;0.00;;;1.30;99.90;;;;;;20468122;29;20435;-39
2024/04/02 02:55:34;;;;;;;0.35;0.00;;;1.20;99.90;;;;;;20468755;29;20506;-38
2024/04/02 03:05:36;;;;;;;0.30;0.00;;;1.30;99.90;;;;;;20466657;29;20035;-39
2024/04/02 03:15:40;;;;;;;0.00;0.00;;;1.10;99.90;;;;;;20498996;28;20078;-38
2024/04/02 03:25:42;;;;;;;0.00;0.00;;;1.20;99.90;;;;;;20514749;28;20071;-38
2024/04/02 03:35:44;;;;;;;0.00;0.00;;;1.40;99.90;;;;;;20497200;29;20031;-38
2024/04/02 03:45:46;;;;;;;0.08;0.00;;;1.40;99.90;;;;;;20496092;29;20040;-38
2024/04/02 03:55:48;;;;;;;0.43;0.00;;;1.50;99.90;;;;;;20444718;29;20040;-39
2024/04/02 04:06:00;;;;;;;0.10;0.00;;;1.40;99.90;;;;;;20444389;29;20046;-39
2024/04/02 04:16:04;;;;;;;0.00;0.00;;;1.40;99.90;;;;;;20459733;29;20121;-39
2024/04/02 04:26:06;;;;;;;0.00;0.00;;;1.60;99.90;;;;;;20483909;29;20039;-39
2024/04/02 04:36:08;;;;;;;0.00;0.00;;;1.40;99.90;;;;;;20508436;28;20031;-39
2024/04/02 04:46:10;;;;;;;0.00;0.00;;;1.40;99.90;;;;;;20447129;29;20036;-39
2024/04/02 04:56:12;;;;;;;0.00;0.00;;;1.20;99.90;;;;;;20435850;29;20028;-39
2024/04/02 05:06:13;;;;;;;0.00;0.00;;;1.30;99.90;;;;;;20442612;29;20031;-39
2024/04/02 05:16:15;;;;;;;0.00;0.00;;;1.20;99.90;;;;;;20502020;29;20036;-38
2024/04/02 05:26:17;;;;;;;0.00;0.00;;;1.20;99.90;;;;;;20480704;28;20051;-39
2024/04/02 05:36:19;;;;;;;0.00;0.00;;;1.20;99.90;;;;;;20491368;29;20039;-38
2024/04/02 05:46:21;;;;;;;0.47;0.00;;;1.30;99.90;;;;;;20481772;28;20542;-38
2024/04/02 05:56:22;;;;;;;0.65;0.00;;;1.40;99.90;;;;;;20479545;29;20075;-38
2024/04/02 06:06:25;;;;;;;0.00;0.00;;;1.40;99.90;;;;;;20491926;29;20058;-39
2024/04/02 06:16:27;;;;;;;0.00;0.00;;;1.50;99.90;;;;;;20440117;29;20787;-38
2024/04/02 06:26:28;;;;;;;0.65;0.00;;;1.70;99.90;;;;;;20446477;29;20491;-39
2024/04/02 06:36:33;;;;;;;0.00;0.00;;;1.90;99.90;;;;;;20436170;29;20042;-39
2024/04/02 06:46:35;;;;;;;0.00;0.00;;;2.30;99.90;;;;;;20422625;29;20090;-38
2024/04/02 06:56:37;;;;;;;0.00;0.00;;;3.10;99.90;;;;;;20476581;28;20086;-39
2024/04/02 07:06:39;;;;;;;0.10;0.00;;;4.00;99.90;;;;;;20488822;29;20364;-40
2024/04/02 07:16:40;;;;;;;0.20;0.00;;;5.20;99.90;;;;;;20403995;29;20031;-43
2024/04/02 07:26:42;;;;;;;0.00;0.00;;;6.60;99.90;;;;;;20441308;29;20051;-41
2024/04/02 07:36:44;;;;;;;0.00;0.00;;;7.70;99.90;;;;;;20413554;29;20111;-43
2024/04/02 07:46:49;;;;;;;0.38;0.00;;;8.70;99.90;;;;;;20497798;29;20035;-43
2024/04/02 07:56:50;;;;;;;0.55;0.00;;;9.00;99.90;;;;;;20489553;29;20027;-41
2024/04/02 08:06:53;;;;;;;0.10;0.00;;;9.40;99.90;;;;;;20440293;29;20395;-40
2024/04/02 08:16:55;;;;;;;0.10;0.00;;;9.60;99.90;;;;;;20485600;29;20086;-41
2024/04/02 08:26:57;;;;;;;0.40;0.00;;;10.00;99.90;;;;;;20434762;29;20091;-41
2024/04/02 08:36:59;;;;;;;0.25;0.08;;;10.20;99.90;;;;;;20448818;29;20027;-42
2024/04/02 08:47:01;;;;;;;0.28;0.10;;;10.80;99.90;;;;;;20430752;29;20031;-43
2024/04/02 08:57:04;;;;;;;0.17;0.00;;;11.60;99.90;;;;;;20466162;29;20032;-44
2024/04/02 09:07:05;;;;;;;0.25;0.05;;;11.50;99.90;;;;;;20430421;29;20044;-43
2024/04/02 09:17:08;;;;;;;0.08;0.00;;;11.50;99.90;;;;;;20424255;29;20091;-41
2024/04/02 09:27:13;;;;;;;0.28;0.03;;;11.90;99.90;;;;;;20444895;29;20044;-44
2024/04/02 09:37:39;;;;;;;1.00;0.10;;;12.10;99.90;;;;;;20488960;29;20399;-43
2024/04/02 09:47:45;;;;;;;0.50;0.10;;;12.80;99.90;;;;;;20485325;29;20039;-41
2024/04/02 09:57:48;;;;;;;0.40;0.10;;;13.50;99.90;;;;;;20279281;29;20037;-41
2024/04/02 10:07:51;;;;;;;0.40;0.20;;;13.80;99.90;;;;;;20261043;29;20060;-43
2024/04/02 10:18:03;;;;;;;1.95;0.10;;;14.00;99.90;;;;;;20255686;29;20044;-45
2024/04/02 10:28:08;;;;;;;0.38;0.22;;;14.10;99.90;;;;;;20332044;29;20172;-46
2024/04/02 10:38:10;;;;;;;0.93;0.30;;;13.60;99.90;;;;;;20434067;29;20035;-47
2024/04/02 10:48:12;;;;;;;0.98;0.20;;;14.10;99.90;;;;;;20388963;29;20035;-46
2024/04/02 10:58:14;;;;;;;0.52;0.20;;;14.70;99.90;;;;;;20418270;29;20035;-47
2024/04/02 11:08:20;;;;;;;1.88;0.32;;;14.90;99.90;;;;;;20448490;29;20479;-44
2024/04/02 11:18:24;;;;;;;1.23;0.40;;;15.00;99.90;;;;;;20464591;29;20047;-43
2024/04/02 11:28:25;;;;;;;2.35;0.90;;;14.90;99.90;;;;;;20469802;29;20064;-44
2024/04/02 11:38:30;;;;;;;3.10;1.02;;;14.30;99.90;;;;;;20451116;28;20035;-42
2024/04/02 11:48:32;;;;;;;2.92;0.80;;;13.60;99.90;;;;;;20510677;29;20038;-43
2024/04/02 12:09:01;;;;;;;1.45;0.50;;;14.00;99.90;;;;;;20438300;29;20095;-43
2024/04/02 12:19:02;;;;;;;2.28;0.40;;;15.50;99.90;;;;;;20427110;29;20039;-43
2024/04/02 12:29:04;;;;;;;1.95;0.50;;;16.20;99.90;;;;;;20501472;29;20051;-45
2024/04/02 12:39:06;;;;;;;1.67;0.35;;;16.50;99.90;;;;;;20451381;29;20063;-44
2024/04/02 12:49:11;;;;;;;2.28;0.50;;;16.50;96.30;;;;;;20437607;28;20052;-43
2024/04/02 12:59:13;;;;;;;2.60;0.60;;;16.30;98.30;;;;;;20451443;29;20365;-43
2024/04/02 13:09:15;;;;;;;2.85;0.50;;;16.10;97.10;;;;;;20437224;29;20032;-44
2024/04/02 13:19:17;;;;;;;3.30;0.55;;;15.80;99.20;;;;;;20426707;29;20043;-42
2024/04/02 13:29:19;;;;;;;3.47;0.68;;;16.00;99.90;;;;;;20466505;29;20048;-43
2024/04/02 13:39:21;;;;;;;1.73;0.85;;;16.90;99.40;;;;;;20447819;29;20039;-41
2024/04/02 13:49:23;;;;;;;4.68;1.13;;;16.40;98.50;;;;;;20414928;29;20039;-42
2024/04/02 13:59:24;;;;;;;5.43;1.30;;;15.70;99.90;;;;;;20425144;29;20032;-41
2024/04/02 14:09:27;;;;;;;4.65;1.08;;;15.00;99.90;;;;;;20455468;29;20044;-42
2024/04/02 14:19:29;;;;;;;3.55;1.48;;;14.50;99.90;;;;;;20470766;29;20035;-42
2024/04/02 14:29:30;;;;;;;3.55;1.60;;;13.60;99.90;;;;;;20496183;28;20119;-43
2024/04/02 14:39:32;;;;;;;5.28;1.80;;;13.10;99.90;;;;;;20490088;29;20035;-42
2024/04/02 14:49:34;;;;;;;3.85;1.60;;;13.20;99.90;;;;;;20445511;29;20043;-42
2024/04/02 14:59:40;;;;;;;3.63;1.50;;;12.90;99.90;;;;;;20477824;29;20035;-42
2024/04/02 15:09:41;;;;;;;3.00;1.73;;;12.40;99.90;;;;;;20458418;29;20035;-42
2024/04/02 15:19:43;;;;;;;4.45;1.67;;;12.10;99.90;;;;;;20437781;28;20086;-41
2024/04/02 15:29:45;;;;;;;5.55;1.73;;;12.00;99.90;;;;;;20471086;29;20060;-40
2024/04/02 15:39:57;;;;;;;5.40;1.10;;;11.30;99.90;;;;;;20472535;29;20061;-41
2024/04/02 15:49:59;;;;;;;1.70;0.88;;;10.40;99.90;;;;;;20505242;29;20115;-44
2024/04/02 16:00:01;;;;;;;0.60;0.30;;;9.90;99.90;;;;;;20452219;29;20075;-39
2024/04/02 16:10:05;;;;;;;2.05;0.68;;;9.60;98.30;;;;;;20467517;29;20079;-40
2024/04/02 16:20:07;;;;;;;1.33;0.68;;;9.00;99.90;;;;;;20467998;29;20043;-40
2024/04/02 16:30:09;;;;;;;1.55;0.63;;;8.40;99.90;;;;;;20506500;28;20051;-39
2024/04/02 16:40:11;;;;;;;0.68;0.30;;;7.90;99.90;;;;;;20507277;29;20039;-39
2024/04/02 16:50:14;;;;;;;2.42;0.70;;;7.50;99.90;;;;;;20443729;29;20498;-39
2024/04/02 17:00:17;;;;;;;3.90;0.85;;;7.00;99.90;;;;;;20490723;29;20077;-40
2024/04/02 17:10:19;;;;;;;1.95;0.68;;;7.00;99.90;;;;;;20505763;29;20028;-39
2024/04/02 17:20:21;;;;;;;2.00;0.57;;;7.00;99.90;;;;;;20505691;29;20039;-39
2024/04/02 17:30:23;;;;;;;1.60;0.40;;;7.40;99.90;;;;;;20441455;29;20060;-39
2024/04/02 17:40:26;;;;;;;2.25;0.75;;;7.20;99.90;;;;;;20442977;28;20043;-39
2024/04/02 17:50:28;;;;;;;2.15;0.70;;;6.90;99.90;;;;;;20429422;29;20102;-39
2024/04/02 18:00:29;;;;;;;1.27;0.50;;;7.00;99.90;;;;;;20435651;29;20039;-40
2024/04/02 18:10:31;;;;;;;1.52;0.50;;;6.30;99.90;;;;;;20445240;29;20051;-39
2024/04/02 18:20:33;;;;;;;2.67;0.43;;;5.70;99.90;;;;;;20431596;29;20070;-39
2024/04/02 18:30:36;;;;;;;2.78;0.50;;;5.40;99.90;;;;;;20500667;29;20426;-39
2024/04/02 18:40:38;;;;;;;17.83;7.63;;;5.50;99.90;;;;;;20483402;29;20522;-39
2024/04/02 18:50:40;;;;;;;32.17;14.85;;;5.00;99.90;;;;;;20434499;29;20391;-39
2024/04/02 19:00:44;;;;;;;7.18;4.75;;;4.70;99.90;;;;;;20497531;29;20032;-39
2024/04/02 19:10:46;;;;;;;5.70;3.42;;;4.50;99.90;;;;;;20408070;29;20310;-40
2024/04/02 19:20:55;;;;;;;3.58;1.40;;;4.50;99.90;;;;;;20398636;29;20240;-39
2024/04/02 19:31:01;;;;;;;3.42;1.92;;;4.40;99.90;;;;;;20181102;29;20064;-39
2024/04/02 19:41:05;;;;;;;5.57;3.03;;;4.40;99.90;;;;;;20212695;29;20057;-39
2024/04/02 19:51:07;;;;;;;3.42;0.95;;;4.50;99.90;;;;;;20171766;29;20048;-39
2024/04/02 20:01:11;;;;;;;1.77;1.08;;;4.70;99.90;;;;;;20233561;29;20044;-39
2024/04/02 20:11:13;;;;;;;3.53;1.70;;;4.40;99.90;;;;;;20463395;29;20046;-39
2024/04/02 20:21:16;;;;;;;2.30;0.70;;;4.30;99.90;;;;;;20428705;29;20035;-39
2024/04/02 20:31:22;;;;;;;1.20;0.60;;;4.30;99.90;;;;;;20445365;29;20051;-39
2024/04/02 20:41:30;;;;;;;2.65;1.05;;;4.10;99.90;;;;;;20484305;29;20039;-39
2024/04/02 20:51:32;;;;;;;1.70;0.80;;;4.10;99.90;;;;;;20448877;29;20027;-39
2024/04/02 21:01:34;;;;;;;1.20;0.75;;;4.60;99.90;;;;;;20507633;29;20035;-39
2024/04/02 21:11:36;;;;;;;1.95;1.00;;;4.50;99.90;;;;;;20489256;28;20110;-39
2024/04/02 21:21:39;;;;;;;2.00;1.17;;;4.00;99.90;;;;;;20481224;29;20463;-39
2024/04/02 21:31:44;;;;;;;1.83;1.05;;;3.80;99.90;;;;;;20506689;29;20035;-39
2024/04/02 21:41:46;;;;;;;1.98;0.73;;;4.00;99.90;;;;;;20504467;29;20035;-39
2024/04/02 21:51:48;;;;;;;0.75;0.40;;;3.70;99.90;;;;;;20475213;29;20545;-39
2024/04/02 22:01:50;;;;;;;1.65;0.50;;;4.00;99.90;;;;;;20439463;29;20032;-39
2024/04/02 22:11:51;;;;;;;0.57;0.30;;;4.10;99.90;;;;;;20482912;29;20027;-39
2024/04/02 22:21:53;;;;;;;1.88;0.40;;;3.80;99.90;;;;;;20483968;28;20051;-40
2024/04/02 22:31:58;;;;;;;4.22;0.35;;;3.70;99.90;;;;;;20484548;29;20102;-39
2024/04/02 22:42:00;;;;;;;0.40;0.28;;;3.80;99.90;;;;;;20483359;29;20031;-40
2024/04/02 22:52:07;;;;;;;0.65;0.20;;;4.10;99.90;;;;;;20454325;29;20487;-39
2024/04/02 23:02:12;;;;;;;0.52;0.40;;;4.20;99.90;;;;;;20500071;29;20038;-40
2024/04/02 23:12:14;;;;;;;0.60;0.22;;;4.70;99.90;;;;;;20499474;29;20035;-39
2024/04/02 23:22:15;;;;;;;0.10;0.10;;;4.00;99.90;;;;;;20490980;29;20054;-39
2024/04/02 23:32:17;;;;;;;0.88;0.20;;;4.10;99.90;;;;;;20498723;29;20588;-39
2024/04/02 23:42:19;;;;;;;1.05;0.60;;;4.20;99.90;;;;;;20512810;28;20031;-39
2024/04/02 23:52:21;;;;;;;1.48;0.50;;;4.30;99.90;;;;;;20484107;29;20063;-39
